sensor_id;sensor_type;location;lat;lon;timestamp;pressure;altitude;pressure_sealevel;temperature;humidity
31717;BME280;18301;51.076;17.046;2023-03-14T00:03:07;98416.16;;;11.31;64.61
31717;BME280;18301;51.076;17.046;2023-03-14T00:08:09;98406.53;;;11.28;64.91
31717;BME280;18301;51.076;17.046;2023-03-14T00:13:10;98425.56;;;11.26;64.64
31717;BME280;18301;51.076;17.046;2023-03-14T00:18:12;98429.28;;;11.25;65.10
31717;BME280;18301;51.076;17.046;2023-03-14T00:23:13;98432.50;;;11.29;64.59
31717;BME280;18301;51.076;17.046;2023-03-14T00:28:14;98423.22;;;11.32;64.57
31717;BME280;18301;51.076;17.046;2023-03-14T00:33:16;98402.28;;;11.25;65.07
31717;BME280;18301;51.076;17.046;2023-03-14T00:38:17;98400.28;;;11.27;65.59
31717;BME280;18301;51.076;17.046;2023-03-14T00:43:20;98383.19;;;11.11;65.83
31717;BME280;18301;51.076;17.046;2023-03-14T00:48:25;98398.91;;;11.15;66.47
31717;BME280;18301;51.076;17.046;2023-03-14T00:53:26;98404.97;;;11.17;66.29
31717;BME280;18301;51.076;17.046;2023-03-14T00:58:28;98451.25;;;11.31;64.44
31717;BME280;18301;51.076;17.046;2023-03-14T01:03:29;98461.06;;;11.40;64.47
31717;BME280;18301;51.076;17.046;2023-03-14T01:08:31;98447.22;;;11.43;64.47
31717;BME280;18301;51.076;17.046;2023-03-14T01:13:32;98438.44;;;11.41;64.61
31717;BME280;18301;51.076;17.046;2023-03-14T01:18:34;98438.09;;;11.60;63.68
31717;BME280;18301;51.076;17.046;2023-03-14T01:23:38;98433.38;;;11.54;63.42
31717;BME280;18301;51.076;17.046;2023-03-14T01:28:40;98431.69;;;11.53;62.84
31717;BME280;18301;51.076;17.046;2023-03-14T01:33:42;98420.38;;;11.49;63.79
31717;BME280;18301;51.076;17.046;2023-03-14T01:38:43;98373.28;;;11.60;63.86
31717;BME280;18301;51.076;17.046;2023-03-14T01:43:45;98363.50;;;11.67;64.09
31717;BME280;18301;51.076;17.046;2023-03-14T01:48:52;98366.19;;;11.75;64.16
31717;BME280;18301;51.076;17.046;2023-03-14T01:54:01;98366.03;;;11.69;65.18
31717;BME280;18301;51.076;17.046;2023-03-14T01:59:04;98339.53;;;11.64;66.34
31717;BME280;18301;51.076;17.046;2023-03-14T02:04:08;98335.50;;;11.52;67.15
31717;BME280;18301;51.076;17.046;2023-03-14T02:09:10;98299.69;;;11.42;67.05
31717;BME280;18301;51.076;17.046;2023-03-14T02:14:20;98279.97;;;11.33;67.66
31717;BME280;18301;51.076;17.046;2023-03-14T02:19:49;98285.53;;;11.23;67.85
31717;BME280;18301;51.076;17.046;2023-03-14T02:30:19;98264.91;;;10.65;70.41
31717;BME280;18301;51.076;17.046;2023-03-14T02:35:24;98254.13;;;10.57;70.33
31717;BME280;18301;51.076;17.046;2023-03-14T02:40:26;98244.34;;;10.64;69.82
31717;BME280;18301;51.076;17.046;2023-03-14T02:45:40;98242.34;;;10.74;69.29
31717;BME280;18301;51.076;17.046;2023-03-14T02:50:43;98247.41;;;10.86;68.68
31717;BME280;18301;51.076;17.046;2023-03-14T02:55:47;98238.97;;;10.89;68.65
31717;BME280;18301;51.076;17.046;2023-03-14T03:00:49;98220.41;;;10.77;68.83
31717;BME280;18301;51.076;17.046;2023-03-14T03:05:52;98201.88;;;10.66;68.78
31717;BME280;18301;51.076;17.046;2023-03-14T03:10:54;98195.31;;;10.77;67.30
31717;BME280;18301;51.076;17.046;2023-03-14T03:15:57;98189.25;;;10.75;67.11
31717;BME280;18301;51.076;17.046;2023-03-14T03:21:03;98178.78;;;10.80;67.50
31717;BME280;18301;51.076;17.046;2023-03-14T03:26:05;98186.03;;;10.79;67.77
31717;BME280;18301;51.076;17.046;2023-03-14T03:31:09;98181.97;;;10.67;67.82
31717;BME280;18301;51.076;17.046;2023-03-14T03:36:11;98187.72;;;10.80;67.37
31717;BME280;18301;51.076;17.046;2023-03-14T03:41:12;98180.28;;;10.74;67.06
31717;BME280;18301;51.076;17.046;2023-03-14T03:46:14;98155.69;;;10.61;67.61
31717;BME280;18301;51.076;17.046;2023-03-14T03:51:16;98147.25;;;10.72;66.96
31717;BME280;18301;51.076;17.046;2023-03-14T03:56:17;98155.50;;;10.71;67.30
31717;BME280;18301;51.076;17.046;2023-03-14T04:01:19;98135.47;;;10.73;66.52
31717;BME280;18301;51.076;17.046;2023-03-14T04:06:21;98124.31;;;10.85;67.24
31717;BME280;18301;51.076;17.046;2023-03-14T04:11:22;98122.97;;;10.80;67.59
31717;BME280;18301;51.076;17.046;2023-03-14T04:16:25;98114.22;;;10.78;67.91
31717;BME280;18301;51.076;17.046;2023-03-14T04:21:26;98108.13;;;10.76;68.23
31717;BME280;18301;51.076;17.046;2023-03-14T04:26:28;98083.47;;;10.96;66.90
31717;BME280;18301;51.076;17.046;2023-03-14T04:31:30;98064.56;;;11.04;67.65
31717;BME280;18301;51.076;17.046;2023-03-14T04:36:31;98056.19;;;10.91;67.97
31717;BME280;18301;51.076;17.046;2023-03-14T04:41:33;98066.94;;;10.99;67.01
31717;BME280;18301;51.076;17.046;2023-03-14T04:46:34;98095.94;;;11.13;67.15
31717;BME280;18301;51.076;17.046;2023-03-14T04:51:36;98079.06;;;11.11;67.06
31717;BME280;18301;51.076;17.046;2023-03-14T04:56:38;98082.09;;;11.08;66.41
31717;BME280;18301;51.076;17.046;2023-03-14T05:01:40;98106.72;;;11.21;66.20
31717;BME280;18301;51.076;17.046;2023-03-14T05:06:42;98102.97;;;11.22;66.92
31717;BME280;18301;51.076;17.046;2023-03-14T05:11:43;98092.03;;;11.24;67.01
31717;BME280;18301;51.076;17.046;2023-03-14T05:16:45;98079.09;;;11.03;67.88
31717;BME280;18301;51.076;17.046;2023-03-14T05:21:46;98049.38;;;11.11;68.12
31717;BME280;18301;51.076;17.046;2023-03-14T05:26:48;98042.31;;;11.02;68.83
31717;BME280;18301;51.076;17.046;2023-03-14T05:31:49;98046.59;;;10.80;69.55
31717;BME280;18301;51.076;17.046;2023-03-14T05:36:51;98048.50;;;10.63;70.24
31717;BME280;18301;51.076;17.046;2023-03-14T05:41:53;98049.50;;;10.62;70.59
31717;BME280;18301;51.076;17.046;2023-03-14T05:46:57;98069.38;;;10.61;70.14
31717;BME280;18301;51.076;17.046;2023-03-14T05:51:58;98069.19;;;10.71;70.31
31717;BME280;18301;51.076;17.046;2023-03-14T05:57:00;98067.69;;;10.76;70.24
31717;BME280;18301;51.076;17.046;2023-03-14T06:02:01;98047.97;;;10.76;70.15
31717;BME280;18301;51.076;17.046;2023-03-14T06:07:03;98067.34;;;10.79;69.71
31717;BME280;18301;51.076;17.046;2023-03-14T06:12:04;98077.47;;;10.69;69.73
31717;BME280;18301;51.076;17.046;2023-03-14T06:17:06;98064.28;;;10.91;68.97
31717;BME280;18301;51.076;17.046;2023-03-14T06:22:07;98062.25;;;10.93;68.66
31717;BME280;18301;51.076;17.046;2023-03-14T06:27:09;98094.94;;;11.06;68.75
31717;BME280;18301;51.076;17.046;2023-03-14T06:32:10;98112.06;;;11.29;68.34
31717;BME280;18301;51.076;17.046;2023-03-14T06:37:12;98118.13;;;11.32;68.17
31717;BME280;18301;51.076;17.046;2023-03-14T06:42:13;98123.88;;;11.37;66.91
31717;BME280;18301;51.076;17.046;2023-03-14T06:47:15;98100.22;;;11.39;67.93
31717;BME280;18301;51.076;17.046;2023-03-14T06:52:16;98094.19;;;11.28;67.72
31717;BME280;18301;51.076;17.046;2023-03-14T06:57:17;98111.09;;;11.22;68.00
31717;BME280;18301;51.076;17.046;2023-03-14T07:02:19;98109.06;;;11.16;68.30
31717;BME280;18301;51.076;17.046;2023-03-14T07:07:29;98100.97;;;11.16;68.02
31717;BME280;18301;51.076;17.046;2023-03-14T07:12:31;98114.81;;;11.21;67.58
31717;BME280;18301;51.076;17.046;2023-03-14T07:17:32;98122.50;;;11.33;67.41
31717;BME280;18301;51.076;17.046;2023-03-14T07:22:34;98133.69;;;11.21;67.95
31717;BME280;18301;51.076;17.046;2023-03-14T07:27:35;98150.19;;;11.26;67.81
31717;BME280;18301;51.076;17.046;2023-03-14T07:32:37;98128.59;;;11.35;68.12
31717;BME280;18301;51.076;17.046;2023-03-14T07:37:38;98129.63;;;11.34;67.81
31717;BME280;18301;51.076;17.046;2023-03-14T07:42:40;98125.59;;;11.21;68.30
31717;BME280;18301;51.076;17.046;2023-03-14T07:47:42;98112.41;;;11.26;68.15
31717;BME280;18301;51.076;17.046;2023-03-14T07:52:43;98100.28;;;11.22;68.15
31717;BME280;18301;51.076;17.046;2023-03-14T07:57:45;98118.50;;;11.20;68.01
31717;BME280;18301;51.076;17.046;2023-03-14T08:02:46;98097.34;;;10.85;69.41
31717;BME280;18301;51.076;17.046;2023-03-14T08:07:48;98108.97;;;10.85;69.21
31717;BME280;18301;51.076;17.046;2023-03-14T08:12:57;98091.63;;;10.71;70.73
31717;BME280;18301;51.076;17.046;2023-03-14T08:17:59;98097.34;;;10.68;70.70
31717;BME280;18301;51.076;17.046;2023-03-14T08:23:01;98114.56;;;10.59;71.19
31717;BME280;18301;51.076;17.046;2023-03-14T08:28:03;98117.25;;;10.59;71.84
31717;BME280;18301;51.076;17.046;2023-03-14T08:33:05;98136.13;;;10.59;72.43
31717;BME280;18301;51.076;17.046;2023-03-14T08:38:07;98142.88;;;10.55;72.90
31717;BME280;18301;51.076;17.046;2023-03-14T08:43:08;98148.28;;;10.55;73.69
31717;BME280;18301;51.076;17.046;2023-03-14T08:48:09;98169.50;;;10.50;74.47
31717;BME280;18301;51.076;17.046;2023-03-14T08:53:11;98169.16;;;10.53;74.64
31717;BME280;18301;51.076;17.046;2023-03-14T08:58:12;98165.63;;;10.77;74.04
31717;BME280;18301;51.076;17.046;2023-03-14T09:03:14;98160.72;;;10.80;73.73
31717;BME280;18301;51.076;17.046;2023-03-14T09:08:16;98166.47;;;10.94;72.36
31717;BME280;18301;51.076;17.046;2023-03-14T09:13:17;98157.34;;;10.95;71.49
31717;BME280;18301;51.076;17.046;2023-03-14T09:18:19;98158.69;;;11.07;71.46
31717;BME280;18301;51.076;17.046;2023-03-14T09:23:20;98170.84;;;10.95;71.58
31717;BME280;18301;51.076;17.046;2023-03-14T09:28:22;98164.44;;;10.96;71.66
31717;BME280;18301;51.076;17.046;2023-03-14T09:33:24;98176.94;;;10.97;71.47
31717;BME280;18301;51.076;17.046;2023-03-14T09:38:25;98192.44;;;11.03;71.81
31717;BME280;18301;51.076;17.046;2023-03-14T09:43:29;98208.97;;;11.00;71.60
31717;BME280;18301;51.076;17.046;2023-03-14T09:48:33;98204.41;;;11.00;71.76
31717;BME280;18301;51.076;17.046;2023-03-14T09:53:40;98212.34;;;10.94;72.18
31717;BME280;18301;51.076;17.046;2023-03-14T09:58:45;98206.91;;;11.02;72.40
31717;BME280;18301;51.076;17.046;2023-03-14T10:03:48;98213.00;;;11.12;73.22
31717;BME280;18301;51.076;17.046;2023-03-14T10:08:52;98205.56;;;11.22;73.28
31717;BME280;18301;51.076;17.046;2023-03-14T10:14:10;98203.00;;;11.29;73.67
31717;BME280;18301;51.076;17.046;2023-03-14T10:19:16;98207.53;;;11.45;73.34
31717;BME280;18301;51.076;17.046;2023-03-14T10:24:26;98203.44;;;11.65;73.18
31717;BME280;18301;51.076;17.046;2023-03-14T10:29:29;98197.69;;;11.68;74.29
31717;BME280;18301;51.076;17.046;2023-03-14T10:34:34;98194.97;;;11.77;73.72
31717;BME280;18301;51.076;17.046;2023-03-14T10:39:45;98184.81;;;11.87;73.16
31717;BME280;18301;51.076;17.046;2023-03-14T10:44:50;98187.16;;;11.90;73.70
31717;BME280;18301;51.076;17.046;2023-03-14T10:49:57;98178.66;;;12.01;73.52
31717;BME280;18301;51.076;17.046;2023-03-14T10:55:16;98172.13;;;12.18;73.23
31717;BME280;18301;51.076;17.046;2023-03-14T11:00:22;98183.06;;;12.25;74.21
31717;BME280;18301;51.076;17.046;2023-03-14T11:10:52;98162.31;;;12.72;73.14
31717;BME280;18301;51.076;17.046;2023-03-14T11:16:19;98154.06;;;12.88;72.81
31717;BME280;18301;51.076;17.046;2023-03-14T11:26:42;98142.78;;;12.99;71.59
31717;BME280;18301;51.076;17.046;2023-03-14T11:31:48;98138.56;;;13.34;70.69
31717;BME280;18301;51.076;17.046;2023-03-14T11:36:59;98130.59;;;13.48;69.50
31717;BME280;18301;51.076;17.046;2023-03-14T11:42:02;98134.50;;;13.16;69.24
31717;BME280;18301;51.076;17.046;2023-03-14T11:47:34;98144.88;;;13.27;69.11
31717;BME280;18301;51.076;17.046;2023-03-14T11:57:46;98147.06;;;13.61;68.29
31717;BME280;18301;51.076;17.046;2023-03-14T12:08:43;98141.53;;;13.54;69.90
31717;BME280;18301;51.076;17.046;2023-03-14T12:13:50;98117.44;;;13.30;70.97
31717;BME280;18301;51.076;17.046;2023-03-14T12:18:53;98123.75;;;13.07;72.29
31717;BME280;18301;51.076;17.046;2023-03-14T12:23:56;98119.22;;;12.85;73.38
31717;BME280;18301;51.076;17.046;2023-03-14T12:49:31;98110.03;;;12.56;73.49
31717;BME280;18301;51.076;17.046;2023-03-14T12:54:50;98104.00;;;12.46;74.33
31717;BME280;18301;51.076;17.046;2023-03-14T13:00:17;98098.34;;;12.56;74.26
31717;BME280;18301;51.076;17.046;2023-03-14T13:05:21;98105.16;;;12.52;75.46
31717;BME280;18301;51.076;17.046;2023-03-14T13:10:28;98096.56;;;12.48;75.83
31717;BME280;18301;51.076;17.046;2023-03-14T13:15:42;98096.34;;;12.35;75.74
31717;BME280;18301;51.076;17.046;2023-03-14T13:21:02;98105.44;;;12.34;75.82
31717;BME280;18301;51.076;17.046;2023-03-14T13:26:13;98097.19;;;12.35;75.58
31717;BME280;18301;51.076;17.046;2023-03-14T13:31:25;98096.19;;;12.51;75.47
31717;BME280;18301;51.076;17.046;2023-03-14T13:36:27;98089.25;;;12.72;73.76
31717;BME280;18301;51.076;17.046;2023-03-14T13:41:29;98090.56;;;12.76;74.47
31717;BME280;18301;51.076;17.046;2023-03-14T13:46:33;98066.75;;;12.56;75.58
31717;BME280;18301;51.076;17.046;2023-03-14T13:51:38;98082.91;;;12.79;74.64
31717;BME280;18301;51.076;17.046;2023-03-14T13:56:40;98081.47;;;12.54;75.75
31717;BME280;18301;51.076;17.046;2023-03-14T14:01:42;98086.72;;;12.32;76.34
31717;BME280;18301;51.076;17.046;2023-03-14T14:07:00;98083.28;;;12.38;76.04
31717;BME280;18301;51.076;17.046;2023-03-14T14:12:10;98087.94;;;12.67;74.36
31717;BME280;18301;51.076;17.046;2023-03-14T14:17:33;98085.16;;;12.38;75.38
31717;BME280;18301;51.076;17.046;2023-03-14T14:22:37;98087.72;;;12.54;74.75
31717;BME280;18301;51.076;17.046;2023-03-14T14:27:43;98079.03;;;12.44;75.10
31717;BME280;18301;51.076;17.046;2023-03-14T14:32:46;98078.28;;;12.50;74.82
31717;BME280;18301;51.076;17.046;2023-03-14T14:37:49;98073.63;;;12.59;74.75
31717;BME280;18301;51.076;17.046;2023-03-14T14:42:51;98083.56;;;12.66;74.35
31717;BME280;18301;51.076;17.046;2023-03-14T14:48:04;98072.72;;;12.66;74.10
31717;BME280;18301;51.076;17.046;2023-03-14T14:53:38;98076.09;;;12.69;74.50
31717;BME280;18301;51.076;17.046;2023-03-14T14:58:40;98078.44;;;12.72;74.60
31717;BME280;18301;51.076;17.046;2023-03-14T15:03:43;98060.34;;;12.87;73.85
31717;BME280;18301;51.076;17.046;2023-03-14T15:08:47;98062.69;;;12.90;73.84
31717;BME280;18301;51.076;17.046;2023-03-14T15:13:53;98069.59;;;13.07;72.99
31717;BME280;18301;51.076;17.046;2023-03-14T15:18:57;98063.25;;;13.30;72.18
31717;BME280;18301;51.076;17.046;2023-03-14T15:23:58;98052.34;;;13.38;72.50
31717;BME280;18301;51.076;17.046;2023-03-14T15:29:00;98046.56;;;13.26;72.09
31717;BME280;18301;51.076;17.046;2023-03-14T15:34:02;98043.81;;;13.11;73.03
31717;BME280;18301;51.076;17.046;2023-03-14T15:39:05;98034.59;;;13.06;73.01
31717;BME280;18301;51.076;17.046;2023-03-14T15:44:07;98044.97;;;13.02;72.57
31717;BME280;18301;51.076;17.046;2023-03-14T15:49:08;98039.56;;;13.02;72.52
31717;BME280;18301;51.076;17.046;2023-03-14T15:54:10;98050.00;;;13.05;71.51
31717;BME280;18301;51.076;17.046;2023-03-14T15:59:11;98052.34;;;13.08;71.04
31717;BME280;18301;51.076;17.046;2023-03-14T16:04:14;98055.84;;;13.24;70.57
31717;BME280;18301;51.076;17.046;2023-03-14T16:09:15;98063.44;;;13.13;69.46
31717;BME280;18301;51.076;17.046;2023-03-14T16:14:17;98058.75;;;13.07;68.97
31717;BME280;18301;51.076;17.046;2023-03-14T16:19:18;98054.84;;;13.10;68.49
31717;BME280;18301;51.076;17.046;2023-03-14T16:24:20;98057.94;;;13.07;67.33
31717;BME280;18301;51.076;17.046;2023-03-14T16:29:21;98056.72;;;13.09;67.44
31717;BME280;18301;51.076;17.046;2023-03-14T16:34:23;98065.47;;;13.11;67.06
31717;BME280;18301;51.076;17.046;2023-03-14T16:39:24;98059.50;;;13.01;66.82
31717;BME280;18301;51.076;17.046;2023-03-14T16:44:29;98062.78;;;13.11;67.06
31717;BME280;18301;51.076;17.046;2023-03-14T16:49:31;98056.63;;;12.88;67.20
31717;BME280;18301;51.076;17.046;2023-03-14T16:54:34;98065.28;;;12.98;66.91
31717;BME280;18301;51.076;17.046;2023-03-14T16:59:35;98082.81;;;12.73;67.47
31717;BME280;18301;51.076;17.046;2023-03-14T17:04:39;98082.00;;;12.49;68.59
31717;BME280;18301;51.076;17.046;2023-03-14T17:09:40;98101.50;;;12.44;68.65
31717;BME280;18301;51.076;17.046;2023-03-14T17:14:42;98105.53;;;12.26;69.84
31717;BME280;18301;51.076;17.046;2023-03-14T17:19:44;98119.13;;;12.09;71.05
31717;BME280;18301;51.076;17.046;2023-03-14T17:24:45;98118.78;;;11.89;71.40
31717;BME280;18301;51.076;17.046;2023-03-14T17:29:47;98124.72;;;11.77;71.67
31717;BME280;18301;51.076;17.046;2023-03-14T17:34:49;98128.84;;;11.56;73.56
31717;BME280;18301;51.076;17.046;2023-03-14T17:39:50;98139.03;;;11.46;74.30
31717;BME280;18301;51.076;17.046;2023-03-14T17:44:52;98145.97;;;11.40;74.50
31717;BME280;18301;51.076;17.046;2023-03-14T17:49:53;98144.78;;;11.43;73.79
31717;BME280;18301;51.076;17.046;2023-03-14T17:54:55;98141.72;;;11.46;74.11
31717;BME280;18301;51.076;17.046;2023-03-14T17:59:56;98151.69;;;11.45;74.36
31717;BME280;18301;51.076;17.046;2023-03-14T18:04:58;98156.22;;;11.53;74.06
31717;BME280;18301;51.076;17.046;2023-03-14T18:09:59;98156.56;;;11.50;73.76
31717;BME280;18301;51.076;17.046;2023-03-14T18:15:01;98165.47;;;11.59;73.37
31717;BME280;18301;51.076;17.046;2023-03-14T18:20:04;98162.66;;;11.44;73.57
31717;BME280;18301;51.076;17.046;2023-03-14T18:25:10;98152.53;;;11.46;73.39
31717;BME280;18301;51.076;17.046;2023-03-14T18:30:12;98156.97;;;11.14;75.18
31717;BME280;18301;51.076;17.046;2023-03-14T18:35:14;98167.78;;;11.14;74.33
31717;BME280;18301;51.076;17.046;2023-03-14T18:40:16;98161.72;;;11.04;75.08
31717;BME280;18301;51.076;17.046;2023-03-14T18:45:19;98147.91;;;10.99;74.90
31717;BME280;18301;51.076;17.046;2023-03-14T18:50:21;98141.16;;;10.95;74.91
31717;BME280;18301;51.076;17.046;2023-03-14T18:55:23;98152.97;;;10.94;75.04
31717;BME280;18301;51.076;17.046;2023-03-14T19:00:24;98156.03;;;10.91;74.92
31717;BME280;18301;51.076;17.046;2023-03-14T19:05:29;98158.34;;;11.02;74.77
31717;BME280;18301;51.076;17.046;2023-03-14T19:10:30;98169.00;;;11.03;74.95
31717;BME280;18301;51.076;17.046;2023-03-14T19:15:34;98177.44;;;11.09;74.98
31717;BME280;18301;51.076;17.046;2023-03-14T19:20:36;98179.25;;;11.16;74.93
31717;BME280;18301;51.076;17.046;2023-03-14T19:25:39;98179.09;;;11.18;75.12
31717;BME280;18301;51.076;17.046;2023-03-14T19:30:43;98187.00;;;11.19;75.16
31717;BME280;18301;51.076;17.046;2023-03-14T19:35:46;98205.22;;;11.17;75.31
31717;BME280;18301;51.076;17.046;2023-03-14T19:40:47;98226.66;;;10.94;76.65
31717;BME280;18301;51.076;17.046;2023-03-14T19:45:50;98246.06;;;11.22;75.79
31717;BME280;18301;51.076;17.046;2023-03-14T19:50:52;98258.50;;;11.48;75.98
31717;BME280;18301;51.076;17.046;2023-03-14T19:55:53;98386.09;;;11.25;81.38
31717;BME280;18301;51.076;17.046;2023-03-14T20:00:56;98397.38;;;10.54;81.58
31717;BME280;18301;51.076;17.046;2023-03-14T20:05:57;98449.47;;;9.84;83.28
31717;BME280;18301;51.076;17.046;2023-03-14T20:11:03;98457.72;;;9.47;82.98
31717;BME280;18301;51.076;17.046;2023-03-14T20:16:06;98470.75;;;9.52;82.63
31717;BME280;18301;51.076;17.046;2023-03-14T20:21:11;98492.69;;;9.11;82.99
31717;BME280;18301;51.076;17.046;2023-03-14T20:26:15;98523.81;;;8.86;83.39
31717;BME280;18301;51.076;17.046;2023-03-14T20:31:17;98563.00;;;8.51;79.52
31717;BME280;18301;51.076;17.046;2023-03-14T20:36:18;98583.03;;;7.31;81.33
31717;BME280;18301;51.076;17.046;2023-03-14T20:41:20;98616.72;;;7.64;75.84
31717;BME280;18301;51.076;17.046;2023-03-14T20:46:21;98620.63;;;7.10;78.86
31717;BME280;18301;51.076;17.046;2023-03-14T20:51:23;98637.13;;;6.33;78.45
31717;BME280;18301;51.076;17.046;2023-03-14T20:56:26;98696.16;;;5.99;79.06
31717;BME280;18301;51.076;17.046;2023-03-14T21:01:27;98694.72;;;5.95;78.63
31717;BME280;18301;51.076;17.046;2023-03-14T21:06:46;98741.13;;;6.28;76.06
31717;BME280;18301;51.076;17.046;2023-03-14T21:11:48;98759.44;;;5.89;76.69
31717;BME280;18301;51.076;17.046;2023-03-14T21:16:49;98801.06;;;5.59;77.30
31717;BME280;18301;51.076;17.046;2023-03-14T21:22:03;98810.25;;;5.21;79.76
31717;BME280;18301;51.076;17.046;2023-03-14T21:27:05;98840.94;;;5.51;77.29
31717;BME280;18301;51.076;17.046;2023-03-14T21:32:07;98888.81;;;5.31;76.82
31717;BME280;18301;51.076;17.046;2023-03-14T21:37:08;98878.97;;;4.97;78.89
31717;BME280;18301;51.076;17.046;2023-03-14T21:42:10;98888.84;;;5.43;77.61
31717;BME280;18301;51.076;17.046;2023-03-14T21:47:11;98906.94;;;5.86;75.39
31717;BME280;18301;51.076;17.046;2023-03-14T21:52:13;98931.50;;;5.44;75.81
31717;BME280;18301;51.076;17.046;2023-03-14T21:57:15;98919.75;;;5.12;75.41
31717;BME280;18301;51.076;17.046;2023-03-14T22:02:17;98953.00;;;4.83;75.89
31717;BME280;18301;51.076;17.046;2023-03-14T22:07:19;98972.88;;;4.79;75.72
31717;BME280;18301;51.076;17.046;2023-03-14T22:12:21;99010.53;;;4.76;76.11
31717;BME280;18301;51.076;17.046;2023-03-14T22:17:23;99012.25;;;4.65;77.45
31717;BME280;18301;51.076;17.046;2023-03-14T22:22:24;99048.41;;;4.57;77.54
31717;BME280;18301;51.076;17.046;2023-03-14T22:27:26;99068.50;;;4.63;77.17
31717;BME280;18301;51.076;17.046;2023-03-14T22:32:27;99054.28;;;5.12;75.46
31717;BME280;18301;51.076;17.046;2023-03-14T22:37:29;99056.44;;;5.07;75.91
31717;BME280;18301;51.076;17.046;2023-03-14T22:42:31;99080.56;;;5.18;75.86
31717;BME280;18301;51.076;17.046;2023-03-14T22:47:32;99075.00;;;5.21;75.50
31717;BME280;18301;51.076;17.046;2023-03-14T22:52:34;99086.91;;;5.17;75.31
31717;BME280;18301;51.076;17.046;2023-03-14T22:57:35;99088.50;;;5.07;76.47
31717;BME280;18301;51.076;17.046;2023-03-14T23:02:38;99106.06;;;5.11;75.94
31717;BME280;18301;51.076;17.046;2023-03-14T23:07:40;99099.56;;;5.26;75.69
31717;BME280;18301;51.076;17.046;2023-03-14T23:12:41;99118.16;;;5.41;74.97
31717;BME280;18301;51.076;17.046;2023-03-14T23:17:45;99133.88;;;4.96;76.12
31717;BME280;18301;51.076;17.046;2023-03-14T23:22:47;99131.91;;;5.23;75.54
31717;BME280;18301;51.076;17.046;2023-03-14T23:27:48;99145.63;;;5.06;76.18
31717;BME280;18301;51.076;17.046;2023-03-14T23:32:49;99160.38;;;5.12;76.24
31717;BME280;18301;51.076;17.046;2023-03-14T23:37:51;99175.75;;;5.34;76.05
31717;BME280;18301;51.076;17.046;2023-03-14T23:42:52;99195.03;;;4.88;77.14
31717;BME280;18301;51.076;17.046;2023-03-14T23:47:54;99212.81;;;5.14;76.77
31717;BME280;18301;51.076;17.046;2023-03-14T23:52:55;99223.50;;;5.14;76.84
31717;BME280;18301;51.076;17.046;2023-03-14T23:57:57;99222.94;;;5.35;76.24
